地図

経路データ

SID SEASON NUMBER BASIN SUBBASIN NAME ISO_TIME NATURE LAT LON WMO_WIND WMO_PRES WMO_AGENCY TRACK_TYPE DIST2LAND LANDFALL IFLAG USA_AGENCY USA_ATCF_ID USA_LAT USA_LON USA_RECORD USA_STATUS USA_WIND USA_PRES USA_SSHS USA_R34_NE USA_R34_SE USA_R34_SW USA_R34_NW USA_R50_NE USA_R50_SE USA_R50_SW USA_R50_NW USA_R64_NE USA_R64_SE USA_R64_SW USA_R64_NW USA_POCI USA_ROCI USA_RMW USA_EYE TOKYO_LAT TOKYO_LON TOKYO_GRADE TOKYO_WIND TOKYO_PRES TOKYO_R50_DIR TOKYO_R50_LONG TOKYO_R50_SHORT TOKYO_R30_DIR TOKYO_R30_LONG TOKYO_R30_SHORT TOKYO_LAND CMA_LAT CMA_LON CMA_CAT CMA_WIND CMA_PRES HKO_LAT HKO_LON HKO_CAT HKO_WIND HKO_PRES NEWDELHI_LAT NEWDELHI_LON NEWDELHI_GRADE NEWDELHI_WIND NEWDELHI_PRES NEWDELHI_CI NEWDELHI_DP NEWDELHI_POCI REUNION_LAT REUNION_LON REUNION_TYPE REUNION_WIND REUNION_PRES REUNION_TNUM REUNION_CI REUNION_RMW REUNION_R34_NE REUNION_R34_SE REUNION_R34_SW REUNION_R34_NW REUNION_R50_NE REUNION_R50_SE REUNION_R50_SW REUNION_R50_NW REUNION_R64_NE REUNION_R64_SE REUNION_R64_SW REUNION_R64_NW BOM_LAT BOM_LON BOM_TYPE BOM_WIND BOM_PRES BOM_TNUM BOM_CI BOM_RMW BOM_R34_NE BOM_R34_SE BOM_R34_SW BOM_R34_NW BOM_R50_NE BOM_R50_SE BOM_R50_SW BOM_R50_NW BOM_R64_NE BOM_R64_SE BOM_R64_SW BOM_R64_NW BOM_ROCI BOM_POCI BOM_EYE BOM_POS_METHOD BOM_PRES_METHOD NADI_LAT NADI_LON NADI_CAT NADI_WIND NADI_PRES WELLINGTON_LAT WELLINGTON_LON WELLINGTON_WIND WELLINGTON_PRES DS824_LAT DS824_LON DS824_STAGE DS824_WIND DS824_PRES TD9636_LAT TD9636_LON TD9636_STAGE TD9636_WIND TD9636_PRES TD9635_LAT TD9635_LON TD9635_WIND TD9635_PRES TD9635_ROCI NEUMANN_LAT NEUMANN_LON NEUMANN_CLASS NEUMANN_WIND NEUMANN_PRES MLC_LAT MLC_LON MLC_CLASS MLC_WIND MLC_PRES USA_GUST BOM_GUST BOM_GUST_PER REUNION_GUST REUNION_GUST_PER USA_SEAHGT USA_SEARAD_NE USA_SEARAD_SE USA_SEARAD_SW USA_SEARAD_NW STORM_SPEED STORM_DIR
1917286N13131 1917 47 WP MM NOT_NAMED 1917-10-13 09:00:00 NR 12.6000 130.600 main 552 528 __________O___ -1 12.6000 130.600 2 10 328
1917286N13131 1917 47 WP MM NOT_NAMED 1917-10-13 12:00:00 NR 13.0187 130.330 main 528 514 __________P___ -1 13.0187 130.330 2 10 328
1917286N13131 1917 47 WP MM NOT_NAMED 1917-10-13 15:00:00 NR 13.4599 130.037 main 509 493 __________P___ -1 13.4599 130.037 2 11 327
1917286N13131 1917 47 WP MM NOT_NAMED 1917-10-13 18:00:00 NR 13.9461 129.701 main 493 479 __________P___ -1 13.9461 129.701 2 13 325
1917286N13131 1917 47 WP MM NOT_NAMED 1917-10-13 21:00:00 NR 14.5000 129.300 main 485 477 __________O___ -1 14.5000 129.300 2 15 324
1917286N13131 1917 47 WP MM NOT_NAMED 1917-10-14 00:00:00 NR 15.1356 128.819 main 482 470 __________P___ -1 15.1356 128.819 2 17 323
1917286N13131 1917 47 WP MM NOT_NAMED 1917-10-14 03:00:00 NR 15.8329 128.275 main 470 458 __________P___ -1 15.8329 128.275 2 18 323
1917286N13131 1917 47 WP MM NOT_NAMED 1917-10-14 06:00:00 NR 16.5637 127.693 main 465 457 __________P___ -1 16.5637 127.693 2 19 322
1917286N13131 1917 47 WP MM NOT_NAMED 1917-10-14 09:00:00 NR 17.3000 127.100 main 475 438 __________O___ -1 17.3000 127.100 2 19 322
1917286N13131 1917 47 WP MM NOT_NAMED 1917-10-14 12:00:00 NR 18.0572 126.481 main 441 381 __________P___ -1 18.0572 126.481 2 19 322
1917286N13131 1917 47 WP MM NOT_NAMED 1917-10-14 15:00:00 NR 18.8057 125.863 main 382 334 __________P___ -1 18.8057 125.863 2 18 322
1917286N13131 1917 47 WP MM NOT_NAMED 1917-10-14 18:00:00 NR 19.5012 125.287 main 338 317 __________P___ -1 19.5012 125.287 2 16 322
1917286N13131 1917 47 WP MM NOT_NAMED 1917-10-14 21:00:00 NR 20.1000 124.800 main 324 321 __________O___ -1 20.1000 124.800 2 13 323
1917286N13131 1917 47 WP MM NOT_NAMED 1917-10-15 00:00:00 NR 20.5291 124.450 main 321 321 __________P___ -1 20.5291 124.450 2 10 323
1917286N13131 1917 47 WP MM NOT_NAMED 1917-10-15 03:00:00 NR 20.8660 124.191 main 343 329 __________P___ -1 20.8660 124.191 2 8 326
1917286N13131 1917 47 WP MM NOT_NAMED 1917-10-15 06:00:00 NR 21.1700 123.988 main 329 302 __________P___ -1 21.1700 123.988 2 7 330
1917286N13131 1917 47 WP MM NOT_NAMED 1917-10-15 09:00:00 NR 21.5000 123.800 main 302 260 __________O___ -1 21.5000 123.800 2 8 323
1917286N13131 1917 47 WP MM NOT_NAMED 1917-10-15 12:00:00 NR 21.8096 123.477 main 260 215 __________P___ -1 21.8096 123.477 2 9 319
1917286N13131 1917 47 WP MM NOT_NAMED 1917-10-15 15:00:00 NR 22.1732 123.176 main 210 173 __________P___ -1 22.1732 123.176 2 10 331
1917286N13131 1917 47 WP MM NOT_NAMED 1917-10-15 18:00:00 NR 22.6751 122.961 main 169 149 __________P___ -1 22.6751 122.961 2 13 348
1917286N13131 1917 47 WP MM NOT_NAMED 1917-10-15 21:00:00 NR 23.4000 122.900 main 146 110 __________O___ -1 23.4000 122.900 2 18 1
1917286N13131 1917 47 WP MM NOT_NAMED 1917-10-16 00:00:00 NR 24.5046 123.003 main 111 103 __________P___ -1 24.5046 123.003 2 25 8
1917286N13131 1917 47 WP MM NOT_NAMED 1917-10-16 03:00:00 NR 25.8206 123.278 main 158 158 __________P___ -1 25.8206 123.278 2 28 13
1917286N13131 1917 47 WP MM NOT_NAMED 1917-10-16 06:00:00 NR 27.2014 123.714 main 240 231 __________P___ -1 27.2014 123.714 2 28 19
1917286N13131 1917 47 WP MM NOT_NAMED 1917-10-16 09:00:00 NR 28.5000 124.300 main 236 233 __________O___ -1 28.5000 124.300 2 27 26
1917286N13131 1917 47 WP MM NOT_NAMED 1917-10-16 12:00:00 NR 29.6040 125.020 main 293 293 __________P___ -1 29.6040 125.020 2 24 33
1917286N13131 1917 47 WP MM NOT_NAMED 1917-10-16 15:00:00 NR 30.5354 125.847 main 304 211 __________P___ -1 30.5354 125.847 2 23 40
1917286N13131 1917 47 WP MM NOT_NAMED 1917-10-16 18:00:00 NR 31.3491 126.751 main 212 153 __________P___ -1 31.3491 126.751 2 22 45
1917286N13131 1917 47 WP MM NOT_NAMED 1917-10-16 21:00:00 NR 32.1000 127.700 main 158 __________O___ -1 32.1000 127.700 2 22 47

デジタル台風データ・検索

IBTrACS Databaseについて

本データベースは、米国NOAAが公開する1842年以降の世界の熱帯低気圧のベストトラックデータアーカイブInternational Best Track Archive for Climate Stewardship (IBTrACS)を、ウェブで閲覧しやすい形式に変換したものです。

最終更新日:2021-10-25